Time;durP1;ratioP1;P1;durP2;ratioP2;P2;SDS_P1;SDS_P2;PMS_P1;PMS_P2;Temp;Humidity;BMP_temperature;BMP_pressure;BME280_temperature;BME280_humidity;BME280_pressure;Samples;Min_cycle;Max_cycle;Signal;HPM_P1;HPM_P2
2022/12/07 00:01:06;;;;;;;12.97;9.37;;;3.50;99.90;;;;;;5059094;28;20222;-52
2022/12/07 00:03:34;;;;;;;15.67;10.47;;;3.50;99.90;;;;;;5046704;28;20613;-50
2022/12/07 00:06:01;;;;;;;14.17;9.80;;;3.50;99.90;;;;;;5059334;28;20206;-52
2022/12/07 00:08:28;;;;;;;15.60;10.93;;;3.60;99.90;;;;;;5058038;28;20209;-52
2022/12/07 00:10:55;;;;;;;14.87;9.97;;;3.60;99.90;;;;;;5053628;28;20233;-52
2022/12/07 00:13:23;;;;;;;16.47;10.67;;;3.60;99.90;;;;;;5060705;28;20203;-50
2022/12/07 00:15:50;;;;;;;18.30;10.17;;;3.60;99.90;;;;;;5056547;28;20742;-54
2022/12/07 00:18:17;;;;;;;15.83;10.90;;;3.60;99.90;;;;;;5044095;28;20210;-49
2022/12/07 00:20:44;;;;;;;16.03;11.60;;;3.60;99.90;;;;;;5061622;28;20215;-52
2022/12/07 00:23:10;;;;;;;16.07;10.33;;;3.60;99.90;;;;;;5055205;28;20263;-51
2022/12/07 00:25:37;;;;;;;16.50;10.27;;;3.60;99.90;;;;;;5063290;28;20711;-54
2022/12/07 00:28:05;;;;;;;14.77;10.10;;;3.60;99.90;;;;;;5054129;28;20198;-51
2022/12/07 00:30:32;;;;;;;18.00;11.07;;;3.60;99.90;;;;;;5061580;28;20225;-48
2022/12/07 00:32:59;;;;;;;16.40;11.40;;;3.60;99.90;;;;;;5057419;28;20967;-50
2022/12/07 00:35:27;;;;;;;16.93;11.13;;;3.60;99.90;;;;;;5046202;28;20268;-48
2022/12/07 00:37:53;;;;;;;12.83;10.20;;;3.60;99.90;;;;;;5054879;28;20199;-49
2022/12/07 00:40:20;;;;;;;16.03;10.37;;;3.60;99.90;;;;;;5062268;28;20218;-50
2022/12/07 00:42:47;;;;;;;15.23;10.60;;;3.60;99.90;;;;;;5053223;28;20207;-53
2022/12/07 00:45:14;;;;;;;13.07;10.50;;;3.60;99.90;;;;;;5055387;28;20222;-49
2022/12/07 00:47:42;;;;;;;15.30;10.63;;;3.60;99.90;;;;;;5062095;28;20245;-52
2022/12/07 00:50:09;;;;;;;13.80;11.17;;;3.60;99.90;;;;;;5041408;28;20222;-51
2022/12/07 00:52:36;;;;;;;15.33;10.97;;;3.60;99.90;;;;;;5062417;28;20245;-52
2022/12/07 00:55:02;;;;;;;19.73;11.10;;;3.60;99.90;;;;;;5053116;28;20206;-52
2022/12/07 00:57:31;;;;;;;16.50;11.23;;;3.60;99.90;;;;;;5062321;28;20203;-50
2022/12/07 01:00:00;;;;;;;13.63;10.80;;;3.60;99.90;;;;;;5058600;28;20210;-51
2022/12/07 01:02:26;;;;;;;13.60;10.50;;;3.60;99.90;;;;;;5062168;28;20206;-53
2022/12/07 01:04:54;;;;;;;16.33;10.67;;;3.60;99.90;;;;;;5044416;28;20581;-51
2022/12/07 01:07:21;;;;;;;16.57;11.00;;;3.60;99.90;;;;;;5061185;28;20195;-52
2022/12/07 01:09:48;;;;;;;13.93;10.33;;;3.60;99.90;;;;;;5059864;28;20230;-51
2022/12/07 01:12:15;;;;;;;16.00;10.60;;;3.60;99.90;;;;;;5055375;28;20199;-53
2022/12/07 01:14:42;;;;;;;14.07;10.03;;;3.60;99.90;;;;;;5064206;28;20672;-53
2022/12/07 01:17:09;;;;;;;15.23;10.37;;;3.60;99.90;;;;;;5063692;28;20191;-53
2022/12/07 01:19:35;;;;;;;11.60;9.17;;;3.60;99.90;;;;;;5060366;28;20214;-51
2022/12/07 01:22:03;;;;;;;13.00;8.80;;;3.60;99.90;;;;;;5044896;28;20222;-48
2022/12/07 01:24:30;;;;;;;11.40;8.67;;;3.60;99.90;;;;;;5060197;28;20265;-51
2022/12/07 01:26:57;;;;;;;15.13;8.47;;;3.60;99.90;;;;;;5060262;28;20232;-51
2022/12/07 01:29:24;;;;;;;12.90;8.10;;;3.60;99.90;;;;;;5062709;28;20219;-49
2022/12/07 01:31:51;;;;;;;12.73;8.20;;;3.60;99.90;;;;;;5062901;28;20672;-48
2022/12/07 01:34:18;;;;;;;9.97;7.93;;;3.60;99.90;;;;;;5065073;28;20210;-50
2022/12/07 01:36:45;;;;;;;9.63;8.10;;;3.60;99.90;;;;;;5035528;28;20235;-50
2022/12/07 01:39:13;;;;;;;11.40;7.30;;;3.60;99.90;;;;;;5063633;28;20240;-49
2022/12/07 01:41:43;;;;;;;9.90;7.63;;;3.60;99.90;;;;;;5065163;28;20202;-50
2022/12/07 01:44:18;;;;;;;10.87;7.13;;;3.60;99.90;;;;;;5056267;28;20211;-49
2022/12/07 01:46:47;;;;;;;11.33;7.20;;;3.60;99.90;;;;;;5063884;28;20202;-49
2022/12/07 01:49:19;;;;;;;11.33;7.70;;;3.50;99.90;;;;;;5055153;28;20302;-53
2022/12/07 01:51:48;;;;;;;11.00;6.87;;;3.50;99.90;;;;;;5046283;28;20205;-50
2022/12/07 01:54:17;;;;;;;9.60;6.80;;;3.50;99.90;;;;;;5058510;28;20419;-47
2022/12/07 01:56:50;;;;;;;8.67;6.53;;;3.50;99.90;;;;;;5064120;28;20217;-51
2022/12/07 01:59:18;;;;;;;12.67;6.87;;;3.50;99.90;;;;;;5060706;28;20214;-50
2022/12/07 02:01:45;;;;;;;13.33;6.90;;;3.40;99.90;;;;;;5061961;28;20260;-52
2022/12/07 02:04:13;;;;;;;11.60;6.50;;;3.40;99.90;;;;;;5063423;28;20265;-52
2022/12/07 02:06:41;;;;;;;11.87;6.90;;;3.40;99.90;;;;;;5034917;28;21287;-49
2022/12/07 02:09:08;;;;;;;9.83;6.33;;;3.40;99.90;;;;;;5064997;28;20195;-50
2022/12/07 02:11:37;;;;;;;10.23;6.50;;;3.30;99.90;;;;;;5055685;28;20213;-51
2022/12/07 02:14:04;;;;;;;11.67;6.37;;;3.30;99.90;;;;;;5056248;28;20556;-55
2022/12/07 02:16:39;;;;;;;11.97;5.90;;;3.30;99.90;;;;;;5062174;28;20210;-51
2022/12/07 02:19:34;;;;;;;7.13;5.47;;;3.30;99.90;;;;;;5064815;28;20202;-53
2022/12/07 02:22:08;;;;;;;10.97;5.93;;;3.30;99.90;;;;;;5042876;28;20210;-53
2022/12/07 02:24:51;;;;;;;7.53;5.40;;;3.30;99.90;;;;;;5054823;28;20190;-50
2022/12/07 02:27:40;;;;;;;10.23;6.57;;;3.30;99.90;;;;;;5064839;28;20198;-50
2022/12/07 02:30:11;;;;;;;10.70;5.33;;;3.30;99.90;;;;;;5061121;28;20588;-53
2022/12/07 02:32:45;;;;;;;8.13;4.87;;;3.30;99.90;;;;;;5060695;28;20205;-52
2022/12/07 02:35:19;;;;;;;6.47;4.40;;;3.20;99.90;;;;;;5062902;28;20761;-52
2022/12/07 02:37:59;;;;;;;5.03;4.23;;;3.20;99.90;;;;;;5044617;28;20327;-48
2022/12/07 02:40:31;;;;;;;10.47;4.47;;;3.20;99.90;;;;;;5055210;28;20573;-51
2022/12/07 02:43:04;;;;;;;5.87;3.83;;;3.20;99.90;;;;;;5062229;28;20203;-50
2022/12/07 02:45:36;;;;;;;5.13;4.07;;;3.10;99.90;;;;;;5061230;28;20217;-50
2022/12/07 02:48:05;;;;;;;3.63;3.30;;;3.10;99.90;;;;;;5064254;28;20206;-51
2022/12/07 02:50:32;;;;;;;5.53;3.37;;;3.10;99.90;;;;;;5055784;28;20218;-50
2022/12/07 02:52:59;;;;;;;6.03;3.50;;;3.10;99.90;;;;;;5047280;28;20203;-50
2022/12/07 02:55:30;;;;;;;4.93;3.10;;;3.10;99.90;;;;;;5061013;28;20190;-51
2022/12/07 02:58:13;;;;;;;5.33;3.40;;;3.00;99.90;;;;;;5057767;28;20207;-47
2022/12/07 03:00:52;;;;;;;5.40;3.10;;;3.00;99.90;;;;;;5054146;28;20218;-51
2022/12/07 03:03:19;;;;;;;6.03;3.10;;;2.90;99.90;;;;;;5056631;28;20281;-50
2022/12/07 03:06:07;;;;;;;3.50;2.50;;;2.90;99.90;;;;;;5054715;28;20209;-50
2022/12/07 03:08:44;;;;;;;5.70;2.20;;;2.90;99.90;;;;;;5037957;28;20951;-52
2022/12/07 03:11:13;;;;;;;3.60;2.57;;;2.90;99.90;;;;;;5060170;28;20276;-50
2022/12/07 03:13:46;;;;;;;2.70;2.07;;;2.80;99.90;;;;;;5056791;28;20201;-48
2022/12/07 03:16:17;;;;;;;2.80;1.70;;;2.80;99.90;;;;;;5062516;28;20551;-52
2022/12/07 03:18:48;;;;;;;3.63;1.90;;;2.80;99.90;;;;;;5062436;28;20677;-46
2022/12/07 03:21:18;;;;;;;2.20;1.63;;;2.80;99.90;;;;;;5061788;28;20221;-48
2022/12/07 03:23:49;;;;;;;2.97;1.97;;;2.70;99.90;;;;;;5035548;28;20207;-50
2022/12/07 03:26:19;;;;;;;2.43;1.43;;;2.70;99.90;;;;;;5057482;28;20199;-47
2022/12/07 03:28:52;;;;;;;4.80;1.97;;;2.70;99.90;;;;;;5054807;28;20296;-52
2022/12/07 03:31:25;;;;;;;1.40;1.30;;;2.70;99.90;;;;;;5063122;28;20226;-47
2022/12/07 03:34:01;;;;;;;1.47;1.00;;;2.60;99.90;;;;;;5059549;28;21025;-47
2022/12/07 03:36:34;;;;;;;2.60;1.70;;;2.60;99.90;;;;;;5063163;28;20699;-49
2022/12/07 03:39:28;;;;;;;2.53;0.90;;;2.60;99.90;;;;;;5041394;28;20367;-51
2022/12/07 03:41:56;;;;;;;2.40;1.10;;;2.60;99.90;;;;;;5059518;28;20353;-47
2022/12/07 03:44:25;;;;;;;4.10;1.27;;;2.60;99.90;;;;;;5057728;28;20206;-49
2022/12/07 03:47:02;;;;;;;1.87;1.00;;;2.60;99.90;;;;;;5059785;28;20935;-47
2022/12/07 03:49:37;;;;;;;2.40;1.00;;;2.50;99.90;;;;;;5057576;28;20337;-52
2022/12/07 03:52:13;;;;;;;1.20;1.10;;;2.50;99.90;;;;;;5058837;28;20205;-47
2022/12/07 03:54:43;;;;;;;3.57;1.30;;;2.50;99.90;;;;;;5050385;28;20213;-51
2022/12/07 03:57:12;;;;;;;6.00;1.17;;;2.50;99.90;;;;;;5060100;28;20198;-51
2022/12/07 03:59:40;;;;;;;1.57;1.20;;;2.50;99.90;;;;;;5060632;28;20218;-53
2022/12/07 04:02:12;;;;;;;3.23;1.43;;;2.50;99.90;;;;;;5062046;28;20679;-50
2022/12/07 04:04:39;;;;;;;1.83;1.50;;;2.50;99.90;;;;;;5060615;28;20210;-53
2022/12/07 04:07:06;;;;;;;2.87;1.20;;;2.40;99.90;;;;;;5062275;28;20302;-48
2022/12/07 04:09:33;;;;;;;2.13;1.40;;;2.40;99.90;;;;;;5061956;28;20294;-49
2022/12/07 04:12:00;;;;;;;3.70;1.30;;;2.40;99.90;;;;;;5038341;28;20211;-50
2022/12/07 04:14:30;;;;;;;4.90;1.57;;;2.40;99.90;;;;;;5057285;28;20237;-52
2022/12/07 04:16:59;;;;;;;5.80;1.67;;;2.40;99.90;;;;;;5052916;28;20912;-50
2022/12/07 04:19:29;;;;;;;2.83;1.50;;;2.40;99.90;;;;;;5056746;28;20223;-49
2022/12/07 04:21:57;;;;;;;4.37;1.80;;;2.40;99.90;;;;;;5042172;28;20284;-49
2022/12/07 04:24:24;;;;;;;2.37;2.13;;;2.30;99.90;;;;;;5062570;28;20271;-51
2022/12/07 04:26:52;;;;;;;2.23;1.73;;;2.30;99.90;;;;;;5042791;28;20644;-53
2022/12/07 04:29:20;;;;;;;3.90;1.60;;;2.30;99.90;;;;;;5055937;28;20236;-46
2022/12/07 04:31:48;;;;;;;2.00;1.80;;;2.30;99.90;;;;;;5052137;28;20226;-52
2022/12/07 04:34:15;;;;;;;3.40;1.87;;;2.30;99.90;;;;;;5062695;28;20191;-48
2022/12/07 04:36:44;;;;;;;5.30;2.67;;;2.30;99.90;;;;;;5056320;28;20195;-52
2022/12/07 04:39:20;;;;;;;2.70;1.80;;;2.30;99.90;;;;;;5062066;28;20186;-52
2022/12/07 04:41:47;;;;;;;2.87;1.90;;;2.20;99.90;;;;;;5061678;28;20198;-50
2022/12/07 04:44:15;;;;;;;2.20;2.00;;;2.20;99.90;;;;;;5039195;28;20316;-49
2022/12/07 04:46:42;;;;;;;2.97;1.80;;;2.20;99.90;;;;;;5060588;28;20191;-49
2022/12/07 04:49:10;;;;;;;2.53;1.80;;;2.20;99.90;;;;;;5065060;28;20633;-50
2022/12/07 04:51:37;;;;;;;4.90;2.67;;;2.20;99.90;;;;;;5055696;28;20218;-47
2022/12/07 04:54:05;;;;;;;2.77;1.87;;;2.20;99.90;;;;;;5066459;28;20665;-50
2022/12/07 04:56:34;;;;;;;2.70;1.97;;;2.20;99.90;;;;;;5060137;28;20216;-48
2022/12/07 04:59:02;;;;;;;4.73;2.60;;;2.20;99.90;;;;;;5045268;28;20699;-47
2022/12/07 05:01:29;;;;;;;6.00;1.80;;;2.10;99.90;;;;;;5062446;28;20199;-49
2022/12/07 05:03:56;;;;;;;2.30;1.77;;;2.10;99.90;;;;;;5061236;28;20195;-50
2022/12/07 05:06:22;;;;;;;4.03;2.00;;;2.10;99.90;;;;;;5052178;28;20210;-49
2022/12/07 05:08:49;;;;;;;3.67;2.10;;;2.10;99.90;;;;;;5064491;28;20542;-51
2022/12/07 05:14:00;;;;;;;5.97;2.23;;;2.10;99.90;;;;;;5065798;28;20218;-51
2022/12/07 05:16:26;;;;;;;6.27;2.13;;;2.10;99.90;;;;;;5042088;28;20210;-49
2022/12/07 05:18:53;;;;;;;7.33;3.70;;;2.10;99.90;;;;;;5066169;28;20203;-48
2022/12/07 05:21:20;;;;;;;3.50;2.53;;;2.10;99.90;;;;;;5063097;28;20675;-51
2022/12/07 05:23:47;;;;;;;5.77;2.47;;;2.00;99.90;;;;;;5053708;28;20203;-50
2022/12/07 05:26:14;;;;;;;2.97;2.40;;;2.00;99.90;;;;;;5064792;28;20202;-51
2022/12/07 05:28:42;;;;;;;3.53;2.07;;;2.00;99.90;;;;;;5054741;28;20179;-49
2022/12/07 05:31:09;;;;;;;2.87;2.60;;;2.00;99.90;;;;;;5046901;28;20225;-48
2022/12/07 05:33:36;;;;;;;2.40;1.90;;;2.00;99.90;;;;;;5062150;28;20454;-47
2022/12/07 05:36:05;;;;;;;5.03;2.30;;;1.90;99.90;;;;;;5064560;28;20660;-48
2022/12/07 05:38:32;;;;;;;5.77;2.60;;;2.00;99.90;;;;;;5049201;28;20202;-48
2022/12/07 05:41:02;;;;;;;3.37;2.57;;;2.00;99.90;;;;;;5065667;28;20301;-52
2022/12/07 05:43:29;;;;;;;3.60;2.97;;;1.90;99.90;;;;;;5059029;28;20198;-50
2022/12/07 05:45:58;;;;;;;3.83;2.80;;;2.00;99.90;;;;;;5048796;28;20281;-50
2022/12/07 05:48:25;;;;;;;3.93;2.73;;;1.90;99.90;;;;;;5061106;28;20671;-52
2022/12/07 05:50:53;;;;;;;4.50;2.80;;;1.90;99.90;;;;;;5062654;28;20602;-49
2022/12/07 05:53:20;;;;;;;5.13;2.67;;;1.90;99.90;;;;;;5062939;28;20653;-51
2022/12/07 05:55:47;;;;;;;4.23;2.73;;;1.80;99.90;;;;;;5054267;28;20198;-50
2022/12/07 06:01:00;;;;;;;3.53;2.97;;;1.70;99.90;;;;;;5046618;28;20296;-50
2022/12/07 06:03:26;;;;;;;4.80;3.10;;;1.70;99.90;;;;;;5058314;28;20213;-49
2022/12/07 06:05:54;;;;;;;4.63;3.33;;;1.70;99.90;;;;;;5062889;28;20202;-50
2022/12/07 06:08:20;;;;;;;3.53;2.63;;;1.70;99.90;;;;;;5059612;28;20194;-50
2022/12/07 06:12:33;;;;;;;6.20;3.13;;;1.60;99.90;;;;;;5059994;28;20692;-50
2022/12/07 06:13:35;;;;;;;4.97;2.87;;;1.60;99.90;;;;;;5057274;28;20703;-51
2022/12/07 06:16:03;;;;;;;3.57;2.57;;;1.60;99.90;;;;;;5055506;28;20191;-51
2022/12/07 06:18:31;;;;;;;3.47;2.90;;;1.50;99.90;;;;;;5051670;28;20194;-51
2022/12/07 06:20:57;;;;;;;8.73;3.20;;;1.50;99.90;;;;;;5059032;28;20446;-51
2022/12/07 06:23:24;;;;;;;3.70;2.77;;;1.50;99.90;;;;;;5051623;28;20256;-52
2022/12/07 06:25:52;;;;;;;5.33;3.30;;;1.50;99.90;;;;;;5045283;28;20217;-52
2022/12/07 06:28:19;;;;;;;5.13;3.00;;;1.50;99.90;;;;;;5056647;28;20245;-50
2022/12/07 06:30:47;;;;;;;6.50;3.07;;;1.50;99.90;;;;;;5055733;28;20310;-49
2022/12/07 06:33:15;;;;;;;4.73;2.47;;;1.50;99.90;;;;;;5042356;28;20281;-50
2022/12/07 06:35:42;;;;;;;3.87;2.87;;;1.50;99.90;;;;;;5046940;28;20194;-49
2022/12/07 06:38:09;;;;;;;4.80;2.67;;;1.50;99.90;;;;;;5061125;28;20252;-48
2022/12/07 06:40:36;;;;;;;5.07;3.00;;;1.60;99.90;;;;;;5050222;28;20215;-50
2022/12/07 06:43:03;;;;;;;4.00;2.70;;;1.50;99.90;;;;;;5055738;28;20203;-52
2022/12/07 06:45:30;;;;;;;3.00;2.33;;;1.50;99.90;;;;;;5048417;28;20202;-52
2022/12/07 06:47:57;;;;;;;6.73;3.00;;;1.60;99.90;;;;;;5044633;28;20198;-48
2022/12/07 06:50:25;;;;;;;4.60;2.80;;;1.60;99.90;;;;;;5058273;28;20949;-53
2022/12/07 06:52:52;;;;;;;3.77;2.57;;;1.60;99.90;;;;;;5047510;28;20273;-52
2022/12/07 06:55:19;;;;;;;3.73;2.87;;;1.60;99.90;;;;;;5054293;28;20202;-49
2022/12/07 06:57:46;;;;;;;4.33;2.60;;;1.60;99.90;;;;;;5050588;28;20194;-48
2022/12/07 07:00:14;;;;;;;6.40;3.20;;;1.60;99.90;;;;;;5059061;28;21888;-54
2022/12/07 07:02:41;;;;;;;3.23;2.83;;;1.60;99.90;;;;;;5036458;28;20213;-54
2022/12/07 07:05:08;;;;;;;5.53;3.10;;;1.70;99.90;;;;;;5060150;28;20206;-51
2022/12/07 07:07:36;;;;;;;6.10;2.53;;;1.70;99.90;;;;;;5048019;28;20605;-51
2022/12/07 07:10:03;;;;;;;2.60;2.30;;;1.70;99.90;;;;;;5049679;28;20226;-48
2022/12/07 07:12:30;;;;;;;4.27;2.53;;;1.70;99.90;;;;;;5049702;28;20274;-49
2022/12/07 07:14:57;;;;;;;6.37;2.37;;;1.70;99.90;;;;;;5048238;28;22951;-47
2022/12/07 07:17:24;;;;;;;5.20;2.47;;;1.80;99.90;;;;;;5039410;28;20206;-52
2022/12/07 07:19:52;;;;;;;5.43;2.60;;;1.80;99.90;;;;;;5059742;28;20311;-53
2022/12/07 07:22:19;;;;;;;6.57;2.80;;;1.80;99.90;;;;;;5054100;28;20596;-50
2022/12/07 07:24:47;;;;;;;3.93;2.03;;;1.80;99.90;;;;;;5058917;28;20183;-51
2022/12/07 07:27:14;;;;;;;3.23;2.33;;;1.80;99.90;;;;;;5058284;28;20300;-51
2022/12/07 07:29:41;;;;;;;4.13;2.30;;;1.80;99.90;;;;;;5038902;28;20219;-52
2022/12/07 07:32:08;;;;;;;3.63;2.40;;;1.90;99.90;;;;;;5051886;28;20755;-50
2022/12/07 07:34:35;;;;;;;3.87;2.17;;;1.90;99.90;;;;;;5042111;28;20202;-51
2022/12/07 07:37:02;;;;;;;4.73;2.10;;;1.90;99.90;;;;;;5050980;28;20285;-52
2022/12/07 07:39:28;;;;;;;5.40;2.60;;;1.90;99.90;;;;;;5049659;28;20211;-54
2022/12/07 07:41:56;;;;;;;2.43;2.10;;;1.90;99.90;;;;;;5051925;28;22834;-50
2022/12/07 07:44:27;;;;;;;2.70;1.87;;;1.90;99.90;;;;;;5048954;28;20226;-53
2022/12/07 07:46:53;;;;;;;3.90;2.13;;;1.90;99.90;;;;;;5047079;28;20340;-52
2022/12/07 07:49:21;;;;;;;2.40;1.63;;;2.00;99.90;;;;;;5044719;28;20692;-51
2022/12/07 07:51:47;;;;;;;6.80;2.20;;;2.00;99.90;;;;;;5052614;28;20947;-50
2022/12/07 07:54:14;;;;;;;3.43;1.77;;;2.00;99.90;;;;;;5051749;28;20285;-52
2022/12/07 07:56:42;;;;;;;2.43;1.90;;;2.00;99.90;;;;;;5051692;28;20187;-47
2022/12/07 07:59:10;;;;;;;2.80;1.90;;;2.10;99.90;;;;;;5043520;28;20207;-50
2022/12/07 08:01:36;;;;;;;7.73;2.00;;;2.10;99.90;;;;;;5050015;28;20197;-49
2022/12/07 08:04:03;;;;;;;4.47;1.80;;;2.10;99.90;;;;;;5042411;28;20213;-48
2022/12/07 08:06:30;;;;;;;1.97;1.40;;;2.10;99.90;;;;;;5051584;28;20210;-51
2022/12/07 08:08:57;;;;;;;4.97;1.60;;;2.10;99.90;;;;;;5054422;28;20689;-50
2022/12/07 08:11:24;;;;;;;3.90;1.73;;;2.10;99.90;;;;;;5046759;28;20225;-52
2022/12/07 08:13:51;;;;;;;2.70;1.30;;;2.10;99.90;;;;;;5053433;28;20199;-48
2022/12/07 08:16:19;;;;;;;3.00;1.43;;;2.20;99.90;;;;;;5061770;28;20727;-54
2022/12/07 08:18:46;;;;;;;3.63;1.90;;;2.20;99.90;;;;;;5050821;28;20210;-54
2022/12/07 08:21:15;;;;;;;4.47;1.40;;;2.20;99.90;;;;;;5044347;28;20301;-52
2022/12/07 08:23:43;;;;;;;4.60;1.50;;;2.20;99.90;;;;;;5062762;28;20187;-53
2022/12/07 08:26:11;;;;;;;3.63;1.27;;;2.20;99.90;;;;;;5050586;28;20291;-49
2022/12/07 08:28:38;;;;;;;3.80;1.30;;;2.30;99.90;;;;;;5042372;28;20202;-49
2022/12/07 08:31:06;;;;;;;1.73;1.30;;;2.30;99.90;;;;;;5058085;28;20723;-48
2022/12/07 08:33:35;;;;;;;4.80;1.13;;;2.30;99.90;;;;;;5048902;28;20190;-50
2022/12/07 08:36:02;;;;;;;6.83;1.87;;;2.30;99.90;;;;;;5050151;28;20281;-52
2022/12/07 08:38:29;;;;;;;8.17;1.70;;;2.40;99.90;;;;;;5059638;28;20598;-52
2022/12/07 08:40:56;;;;;;;7.03;1.47;;;2.40;99.90;;;;;;5053466;28;20248;-51
2022/12/07 08:43:23;;;;;;;4.40;1.50;;;2.40;99.90;;;;;;5057174;28;20213;-52
2022/12/07 08:46:04;;;;;;;3.73;1.17;;;2.40;99.90;;;;;;5056355;28;20190;-51
2022/12/07 08:48:32;;;;;;;5.93;1.27;;;2.50;99.90;;;;;;5050533;28;20202;-50
2022/12/07 08:51:01;;;;;;;4.03;1.40;;;2.50;99.90;;;;;;5038946;28;20263;-53
2022/12/07 08:53:29;;;;;;;3.30;1.17;;;2.50;99.90;;;;;;5058032;28;20554;-52
2022/12/07 08:55:57;;;;;;;3.90;1.27;;;2.50;99.90;;;;;;5052551;28;20195;-54
2022/12/07 08:58:24;;;;;;;5.30;1.30;;;2.50;99.90;;;;;;5053153;28;20194;-54
2022/12/07 09:00:51;;;;;;;1.97;1.30;;;2.60;99.90;;;;;;5055143;28;20235;-49
2022/12/07 09:03:18;;;;;;;3.73;1.10;;;2.60;99.90;;;;;;5050915;28;20247;-51
2022/12/07 09:05:45;;;;;;;4.57;1.03;;;2.60;99.90;;;;;;5042494;28;20286;-50
2022/12/07 09:08:13;;;;;;;7.13;1.67;;;2.60;99.90;;;;;;5062563;28;20681;-50
2022/12/07 09:10:40;;;;;;;3.87;1.20;;;2.70;99.90;;;;;;5053959;28;20207;-52
2022/12/07 09:13:06;;;;;;;4.63;1.20;;;2.70;99.90;;;;;;5042758;28;20281;-50
2022/12/07 09:15:33;;;;;;;3.73;1.30;;;2.80;99.90;;;;;;5049401;28;20681;-52
2022/12/07 09:18:00;;;;;;;3.73;1.03;;;2.80;99.90;;;;;;5049421;28;20210;-50
2022/12/07 09:20:27;;;;;;;3.77;1.20;;;2.80;99.90;;;;;;5050516;28;20246;-53
2022/12/07 09:22:53;;;;;;;6.77;1.20;;;2.80;99.90;;;;;;5049352;28;20221;-49
2022/12/07 09:25:21;;;;;;;3.23;1.37;;;2.80;99.90;;;;;;5062224;28;20687;-52
2022/12/07 09:27:48;;;;;;;7.23;1.30;;;2.90;99.90;;;;;;5048539;28;20191;-48
2022/12/07 09:30:15;;;;;;;2.83;1.37;;;2.90;99.90;;;;;;5049677;28;20767;-50
2022/12/07 09:32:42;;;;;;;3.87;1.13;;;2.90;99.90;;;;;;5056918;28;20218;-51
2022/12/07 09:35:09;;;;;;;10.67;1.93;;;2.90;99.90;;;;;;5059432;28;20586;-46
2022/12/07 09:37:36;;;;;;;1.83;1.13;;;3.00;99.90;;;;;;5045214;28;20207;-51
2022/12/07 09:40:05;;;;;;;4.70;1.00;;;3.00;99.90;;;;;;5055934;28;20767;-49
2022/12/07 09:42:39;;;;;;;2.33;1.27;;;3.10;99.90;;;;;;5050196;28;20222;-50
2022/12/07 09:45:07;;;;;;;3.23;0.90;;;3.10;99.90;;;;;;5061943;28;20680;-47
2022/12/07 09:47:34;;;;;;;2.93;1.97;;;3.10;99.90;;;;;;5050861;28;20191;-49
2022/12/07 09:50:06;;;;;;;7.77;1.40;;;3.20;99.90;;;;;;5053405;28;20215;-48
2022/12/07 09:52:33;;;;;;;3.33;1.33;;;3.20;99.90;;;;;;5042929;28;20214;-53
2022/12/07 09:54:59;;;;;;;6.07;1.40;;;3.20;99.90;;;;;;5056397;28;20202;-48
2022/12/07 09:57:29;;;;;;;4.00;0.97;;;3.30;99.90;;;;;;5067874;28;20210;-52
2022/12/07 10:00:03;;;;;;;4.07;0.87;;;3.30;99.90;;;;;;5062542;28;20319;-50
2022/12/07 10:02:38;;;;;;;3.00;1.23;;;3.30;99.90;;;;;;5062070;28;20218;-48
2022/12/07 10:05:07;;;;;;;4.07;1.90;;;3.40;99.90;;;;;;5057549;28;20253;-51
2022/12/07 10:07:34;;;;;;;3.90;1.20;;;3.40;99.90;;;;;;5058055;28;20195;-50
2022/12/07 10:10:04;;;;;;;4.50;1.13;;;3.50;99.90;;;;;;5046936;28;20934;-49
2022/12/07 10:12:31;;;;;;;4.20;1.20;;;3.50;99.90;;;;;;5059853;28;20211;-51
2022/12/07 10:15:02;;;;;;;5.13;0.93;;;3.50;99.90;;;;;;5055505;28;20952;-52
2022/12/07 10:17:33;;;;;;;3.73;0.80;;;3.50;99.90;;;;;;5055167;28;20202;-53
2022/12/07 10:20:33;;;;;;;4.83;1.17;;;3.60;99.90;;;;;;5045471;28;20301;-55
2022/12/07 10:23:02;;;;;;;6.60;1.07;;;3.60;99.90;;;;;;5013618;28;20654;-49
2022/12/07 10:25:33;;;;;;;3.30;1.07;;;3.60;99.90;;;;;;4993428;28;20265;-51
2022/12/07 10:28:02;;;;;;;4.40;1.00;;;3.70;99.90;;;;;;5040542;28;20757;-53
2022/12/07 10:30:32;;;;;;;2.73;1.07;;;3.70;99.90;;;;;;5057284;28;20962;-54
2022/12/07 10:32:59;;;;;;;2.07;1.30;;;3.70;99.90;;;;;;5058430;28;20225;-53
2022/12/07 10:35:28;;;;;;;5.27;1.40;;;3.70;99.90;;;;;;5055166;28;20203;-48
2022/12/07 10:37:57;;;;;;;2.97;1.40;;;3.80;99.90;;;;;;5058764;28;20678;-52
2022/12/07 10:40:28;;;;;;;3.67;1.10;;;3.80;99.90;;;;;;5038268;28;20215;-52
2022/12/07 10:43:06;;;;;;;4.80;1.17;;;3.80;99.90;;;;;;5046866;28;20243;-51
2022/12/07 10:45:42;;;;;;;5.50;0.93;;;3.90;99.90;;;;;;5050840;28;20206;-54
2022/12/07 10:48:14;;;;;;;10.17;1.00;;;3.90;99.90;;;;;;5054274;28;20202;-47
2022/12/07 10:50:57;;;;;;;5.17;0.80;;;3.90;99.90;;;;;;5051864;28;20211;-52
2022/12/07 10:53:45;;;;;;;3.33;0.87;;;3.90;99.90;;;;;;5061645;28;20297;-47
2022/12/07 10:56:45;;;;;;;4.40;1.23;;;4.00;99.90;;;;;;5041489;28;20218;-54
2022/12/07 10:59:31;;;;;;;1.43;0.70;;;4.00;99.90;;;;;;5050971;28;20941;-50
2022/12/07 11:02:12;;;;;;;5.53;1.17;;;4.00;99.90;;;;;;5050806;28;20234;-49
2022/12/07 11:04:53;;;;;;;6.63;1.17;;;4.10;99.90;;;;;;5059018;28;20813;-55
2022/12/07 11:07:31;;;;;;;4.00;1.20;;;4.10;99.90;;;;;;5053252;28;20225;-49
2022/12/07 11:10:06;;;;;;;2.37;1.00;;;4.10;99.90;;;;;;5034139;28;20305;-51
2022/12/07 11:12:51;;;;;;;6.60;1.23;;;4.20;99.90;;;;;;5059547;28;20709;-49
2022/12/07 11:15:23;;;;;;;4.60;0.90;;;4.20;99.90;;;;;;5049979;28;20202;-51
2022/12/07 11:17:58;;;;;;;5.73;1.10;;;4.20;99.90;;;;;;5053176;28;20213;-51
2022/12/07 11:20:37;;;;;;;4.00;1.07;;;4.20;99.90;;;;;;5057812;28;20219;-49
2022/12/07 11:23:14;;;;;;;1.70;0.83;;;4.20;99.90;;;;;;5044622;28;20190;-50
2022/12/07 11:25:50;;;;;;;5.93;1.37;;;4.30;99.90;;;;;;5043106;28;20202;-48
2022/12/07 11:28:32;;;;;;;5.40;1.00;;;4.30;99.90;;;;;;5051086;28;20672;-47
2022/12/07 11:31:09;;;;;;;3.37;1.00;;;4.30;99.90;;;;;;5052308;28;20206;-51
2022/12/07 11:33:44;;;;;;;4.67;1.17;;;4.30;99.90;;;;;;5044251;28;20224;-49
2022/12/07 11:36:29;;;;;;;5.13;1.00;;;4.30;99.90;;;;;;5061093;28;20252;-47
2022/12/07 11:39:00;;;;;;;3.33;1.27;;;4.40;99.90;;;;;;5051586;28;20902;-49
2022/12/07 11:41:32;;;;;;;2.97;1.20;;;4.40;99.90;;;;;;5035851;28;20233;-49
2022/12/07 11:44:06;;;;;;;2.67;1.00;;;4.40;99.90;;;;;;5057670;28;20281;-49
2022/12/07 11:46:46;;;;;;;3.63;0.97;;;4.40;99.90;;;;;;5045791;28;20264;-49
2022/12/07 11:49:20;;;;;;;4.20;0.97;;;4.50;99.90;;;;;;5047408;28;20214;-50
2022/12/07 11:51:52;;;;;;;5.83;1.50;;;4.50;99.90;;;;;;5051111;28;20194;-52
2022/12/07 11:54:23;;;;;;;5.13;1.20;;;4.50;99.90;;;;;;5048663;28;20210;-47
2022/12/07 11:56:53;;;;;;;4.00;0.67;;;4.60;99.90;;;;;;5035685;28;20225;-52
2022/12/07 11:59:28;;;;;;;4.23;1.03;;;4.60;99.90;;;;;;5054293;28;20218;-52
2022/12/07 12:01:59;;;;;;;8.87;1.67;;;4.60;99.90;;;;;;5053974;28;20269;-52
2022/12/07 12:04:48;;;;;;;8.30;0.90;;;4.60;99.90;;;;;;5062401;28;20672;-54
2022/12/07 12:07:18;;;;;;;6.70;0.83;;;4.70;99.90;;;;;;5050378;28;20191;-49
2022/12/07 12:09:52;;;;;;;6.80;1.17;;;4.70;99.90;;;;;;5051993;28;20298;-49
2022/12/07 12:12:43;;;;;;;6.20;1.10;;;4.70;99.90;;;;;;5033862;28;20209;-48
2022/12/07 12:15:23;;;;;;;5.93;1.67;;;4.70;99.90;;;;;;5057501;28;20226;-47
2022/12/07 12:18:11;;;;;;;5.83;1.20;;;4.70;99.90;;;;;;5052468;28;20277;-46
2022/12/07 12:20:44;;;;;;;6.50;1.13;;;4.70;99.90;;;;;;5057983;28;20218;-50
2022/12/07 12:23:16;;;;;;;4.47;0.83;;;4.70;99.90;;;;;;5061911;28;20216;-50
2022/12/07 12:25:46;;;;;;;3.70;1.00;;;4.70;99.90;;;;;;5053448;28;20206;-46
2022/12/07 12:28:25;;;;;;;6.33;1.17;;;4.70;99.90;;;;;;5045167;28;20207;-47
2022/12/07 12:31:11;;;;;;;3.33;0.87;;;4.70;99.90;;;;;;5058139;28;20836;-50
2022/12/07 12:33:43;;;;;;;3.07;0.67;;;4.70;99.90;;;;;;5051491;28;20316;-50
2022/12/07 12:36:23;;;;;;;2.80;0.73;;;4.80;99.90;;;;;;5045224;28;20740;-49
2022/12/07 12:39:07;;;;;;;3.30;0.73;;;4.80;99.90;;;;;;5038884;28;20257;-52
2022/12/07 12:42:07;;;;;;;3.37;0.80;;;4.80;99.90;;;;;;5051728;28;20197;-52
2022/12/07 12:45:13;;;;;;;5.50;1.27;;;4.80;99.90;;;;;;5042811;28;20666;-53
2022/12/07 12:47:56;;;;;;;5.60;1.00;;;4.80;99.90;;;;;;5052592;28;20527;-46
2022/12/07 12:50:29;;;;;;;3.43;0.90;;;4.80;99.90;;;;;;5048853;28;20581;-51
2022/12/07 12:53:22;;;;;;;6.43;0.97;;;4.80;99.90;;;;;;5056770;28;21048;-46
2022/12/07 12:56:28;;;;;;;4.50;0.80;;;4.80;99.90;;;;;;5047335;28;20202;-46
2022/12/07 12:59:23;;;;;;;5.07;0.70;;;4.80;99.90;;;;;;5039123;28;21404;-48
2022/12/07 13:01:51;;;;;;;4.90;1.00;;;4.80;99.90;;;;;;5056325;28;20203;-50
2022/12/07 13:04:40;;;;;;;4.70;0.73;;;4.80;99.90;;;;;;5062729;28;20531;-49
2022/12/07 13:07:34;;;;;;;5.43;0.73;;;4.80;99.90;;;;;;5058655;28;20648;-48
2022/12/07 13:10:03;;;;;;;2.77;0.73;;;4.80;99.90;;;;;;5064109;28;20203;-51
2022/12/07 13:12:31;;;;;;;4.27;0.80;;;4.80;99.90;;;;;;5055891;28;20195;-52
2022/12/07 13:14:59;;;;;;;2.23;0.60;;;4.70;99.90;;;;;;5046197;28;20810;-47
2022/12/07 13:18:02;;;;;;;2.50;0.90;;;4.70;99.90;;;;;;5065230;28;20713;-52
2022/12/07 13:20:52;;;;;;;2.97;0.53;;;4.70;99.90;;;;;;5064274;28;20225;-53